createdAt,value
2022-10-07T00:03:31.249Z,99110.59
2022-10-07T00:08:35.927Z,99110.59
2022-10-07T00:13:39.097Z,99106.91
2022-10-07T00:18:41.671Z,99108.22
2022-10-07T00:23:45.453Z,99097.94
2022-10-07T00:28:47.149Z,99096.91
2022-10-07T00:33:49.754Z,99084.00
2022-10-07T00:38:57.100Z,99077.75
2022-10-07T00:44:00.010Z,99071.06
2022-10-07T00:49:06.827Z,99069.09
2022-10-07T00:54:17.092Z,99067.97
2022-10-07T00:59:20.522Z,99061.88
2022-10-07T01:04:22.187Z,99050.97
2022-10-07T01:09:23.921Z,99048.69
2022-10-07T01:14:40.664Z,99048.25
2022-10-07T01:20:11.908Z,99033.56
2022-10-07T01:25:35.184Z,99031.47
2022-10-07T01:30:42.364Z,99021.16
2022-10-07T01:35:47.314Z,99012.03
2022-10-07T01:41:04.361Z,99018.22
2022-10-07T01:46:12.423Z,99001.50
2022-10-07T01:51:19.124Z,98997.59
2022-10-07T01:56:43.669Z,98992.16
2022-10-07T02:01:57.618Z,98977.66
2022-10-07T02:07:23.646Z,98973.13
2022-10-07T02:12:32.282Z,98970.44
2022-10-07T02:17:38.553Z,98967.53
2022-10-07T02:22:42.634Z,98964.63
2022-10-07T02:27:47.604Z,98961.22
2022-10-07T02:32:57.237Z,98965.94
2022-10-07T02:38:07.557Z,98952.28
2022-10-07T02:43:28.931Z,98946.28
2022-10-07T02:48:35.547Z,98941.69
2022-10-07T02:53:39.711Z,98929.38
2022-10-07T02:58:45.854Z,98928.94
2022-10-07T03:03:49.253Z,98926.88
2022-10-07T03:08:52.008Z,98929.09
2022-10-07T03:13:53.877Z,98929.22
2022-10-07T03:18:55.891Z,98927.75
2022-10-07T03:24:05.766Z,98916.31
2022-10-07T03:29:14.401Z,98914.38
2022-10-07T03:34:17.144Z,98913.75
2022-10-07T03:39:22.122Z,98910.38
2022-10-07T03:44:24.068Z,98904.06
2022-10-07T03:49:26.797Z,98898.09
2022-10-07T03:54:29.526Z,98895.72
2022-10-07T03:59:33.107Z,98890.41
2022-10-07T04:04:34.976Z,98879.50
2022-10-07T04:09:36.608Z,98881.69
2022-10-07T04:14:39.130Z,98879.59
2022-10-07T04:19:41.060Z,98866.53
2022-10-07T04:24:42.683Z,98853.16
2022-10-07T04:29:44.335Z,98866.56
2022-10-07T04:34:46.129Z,98858.97
2022-10-07T04:40:00.080Z,98847.25
2022-10-07T04:45:04.615Z,98848.66
2022-10-07T04:50:07.949Z,98848.53
2022-10-07T04:55:12.430Z,98848.22
2022-10-07T05:00:15.090Z,98850.69
2022-10-07T05:05:18.001Z,98846.56
2022-10-07T05:10:21.211Z,98845.72
2022-10-07T05:15:23.600Z,98843.38
2022-10-07T05:20:27.121Z,98839.16
2022-10-07T05:25:29.866Z,98837.13
2022-10-07T05:30:32.704Z,98840.31
2022-10-07T05:35:35.269Z,98839.56
2022-10-07T05:40:37.090Z,98825.38
2022-10-07T05:45:39.049Z,98824.38
2022-10-07T05:50:40.830Z,98820.53
2022-10-07T05:55:44.773Z,98822.84
2022-10-07T06:00:58.044Z,98819.75
2022-10-07T06:06:02.846Z,98814.00
2022-10-07T06:11:26.065Z,98817.41
2022-10-07T06:16:28.452Z,98802.81
2022-10-07T06:21:31.046Z,98805.03
2022-10-07T06:26:36.612Z,98798.84
2022-10-07T06:31:38.340Z,98795.69
2022-10-07T06:36:40.156Z,98799.97
2022-10-07T06:41:41.865Z,98796.19
2022-10-07T06:46:59.370Z,98797.22
2022-10-07T06:52:01.332Z,98790.16
2022-10-07T06:57:15.469Z,98789.16
2022-10-07T07:02:25.767Z,98795.28
2022-10-07T07:07:28.654Z,98798.19
2022-10-07T07:12:30.311Z,98798.22
2022-10-07T07:17:32.107Z,98796.25
2022-10-07T07:22:34.096Z,98794.97
2022-10-07T07:27:36.590Z,98798.19
2022-10-07T07:32:38.372Z,98793.47
2022-10-07T07:37:40.059Z,98791.22
2022-10-07T07:42:43.149Z,98775.66
2022-10-07T07:47:49.296Z,98767.72
2022-10-07T07:52:55.220Z,98766.09
2022-10-07T07:57:58.700Z,98763.59
2022-10-07T08:03:00.408Z,98763.81
2022-10-07T08:08:02.308Z,98756.06
2022-10-07T08:13:04.304Z,98757.94
2022-10-07T08:18:07.976Z,98758.53
2022-10-07T08:23:09.654Z,98759.41
2022-10-07T08:28:11.283Z,98747.84
2022-10-07T08:33:12.974Z,98746.34
2022-10-07T08:38:15.462Z,98750.25
2022-10-07T08:43:19.682Z,98744.06
2022-10-07T08:48:29.629Z,98730.84
2022-10-07T08:53:34.426Z,98730.66
2022-10-07T08:58:55.442Z,98736.97
2022-10-07T09:04:44.999Z,98727.13
2022-10-07T09:09:54.891Z,98736.56
2022-10-07T09:14:59.252Z,98729.09
2022-10-07T09:20:06.783Z,98720.94
2022-10-07T09:25:11.638Z,98714.56
2022-10-07T09:30:14.347Z,98711.59
2022-10-07T09:35:22.056Z,98703.53
2022-10-07T09:40:34.681Z,98702.09
2022-10-07T09:45:36.497Z,98698.16
2022-10-07T09:50:41.176Z,98696.09
2022-10-07T09:55:44.885Z,98689.28
2022-10-07T10:00:49.055Z,98691.31
2022-10-07T10:06:00.337Z,98691.03
2022-10-07T10:11:28.419Z,98685.81
2022-10-07T10:16:37.625Z,98686.81
2022-10-07T10:21:42.638Z,98686.41
2022-10-07T10:26:56.574Z,98680.03
2022-10-07T10:32:01.261Z,98673.16
2022-10-07T10:37:23.659Z,98660.22
2022-10-07T10:42:51.533Z,98651.72
2022-10-07T10:48:02.928Z,98646.44
2022-10-07T10:53:23.587Z,98639.94
2022-10-07T10:58:39.259Z,98638.34
2022-10-07T11:04:18.142Z,98633.38
2022-10-07T11:09:50.924Z,98614.19
2022-10-07T11:15:02.505Z,98607.75
2022-10-07T11:20:14.500Z,98603.78
2022-10-07T11:25:38.653Z,98597.25
2022-10-07T11:30:52.335Z,98594.69
2022-10-07T11:35:59.600Z,98587.28
2022-10-07T11:41:09.746Z,98580.25
2022-10-07T11:46:16.629Z,98570.06
2022-10-07T11:51:30.214Z,98556.25
2022-10-07T11:56:39.081Z,98553.53
2022-10-07T12:01:48.023Z,98538.50
2022-10-07T12:07:27.588Z,98526.16
2022-10-07T12:12:45.381Z,98517.69
2022-10-07T12:17:55.494Z,98504.19
2022-10-07T12:23:19.083Z,98498.78
2022-10-07T12:28:30.700Z,98491.50
2022-10-07T12:33:56.096Z,98484.63
2022-10-07T12:38:58.545Z,98476.53
2022-10-07T12:44:08.547Z,98461.28
2022-10-07T12:50:01.703Z,98469.09
2022-10-07T12:55:07.574Z,98463.69
2022-10-07T13:00:15.293Z,98457.75
2022-10-07T13:06:01.951Z,98447.66
2022-10-07T13:11:18.899Z,98441.63
2022-10-07T13:16:45.082Z,98431.53
2022-10-07T13:21:56.147Z,98425.28
2022-10-07T13:26:59.270Z,98413.44
2022-10-07T13:32:11.159Z,98409.94
2022-10-07T13:37:32.566Z,98392.78
2022-10-07T13:42:35.313Z,98376.56
2022-10-07T13:47:37.597Z,98364.94
2022-10-07T13:52:44.525Z,98362.59
2022-10-07T13:57:46.845Z,98358.81
2022-10-07T14:02:53.011Z,98341.28
2022-10-07T14:07:58.224Z,98336.47
2022-10-07T14:13:03.411Z,98335.69
2022-10-07T14:18:06.446Z,98326.81
2022-10-07T14:23:31.184Z,98321.69
2022-10-07T14:28:35.927Z,98307.44
2022-10-07T14:34:08.542Z,98298.00
2022-10-07T14:39:33.325Z,98288.91
2022-10-07T14:44:35.432Z,98284.44
2022-10-07T14:49:37.173Z,98271.38
2022-10-07T14:54:40.107Z,98260.03
2022-10-07T14:59:42.194Z,98260.09
2022-10-07T15:04:45.620Z,98255.13
2022-10-07T15:09:47.644Z,98252.03
2022-10-07T15:14:49.435Z,98249.16
2022-10-07T15:19:53.039Z,98243.97
2022-10-07T15:24:54.905Z,98235.16
2022-10-07T15:29:56.651Z,98230.75
2022-10-07T15:34:58.867Z,98229.66
2022-10-07T15:40:00.675Z,98227.31
2022-10-07T15:45:02.428Z,98219.31
2022-10-07T15:50:06.010Z,98217.78
2022-10-07T15:55:09.054Z,98226.34
2022-10-07T16:00:11.564Z,98221.09
2022-10-07T16:05:15.945Z,98211.88
2022-10-07T16:10:17.697Z,98217.69
2022-10-07T16:15:20.645Z,98232.19
2022-10-07T16:20:22.490Z,98219.41
2022-10-07T16:25:24.242Z,98218.44
2022-10-07T16:30:41.128Z,98206.53
2022-10-07T16:35:42.886Z,98215.91
2022-10-07T16:40:52.800Z,98221.94
2022-10-07T16:45:54.589Z,98219.97
2022-10-07T16:50:56.341Z,98212.91
2022-10-07T16:56:01.460Z,98215.53
2022-10-07T17:01:14.852Z,98214.38
2022-10-07T17:06:19.325Z,98214.28
2022-10-07T17:11:29.071Z,98210.34
2022-10-07T17:16:37.827Z,98219.38
2022-10-07T17:21:41.940Z,98212.41
2022-10-07T17:26:44.382Z,98214.59
2022-10-07T17:31:48.391Z,98210.25
2022-10-07T17:36:50.193Z,98215.44
2022-10-07T17:41:51.834Z,98216.63
2022-10-07T17:46:55.583Z,98214.69
2022-10-07T17:51:57.510Z,98216.97
2022-10-07T17:56:59.433Z,98223.16
2022-10-07T18:02:03.149Z,98207.69
2022-10-07T18:07:04.840Z,98208.53
2022-10-07T18:12:25.203Z,98207.69
2022-10-07T18:17:27.322Z,98203.97
2022-10-07T18:22:28.994Z,98199.75
2022-10-07T18:27:31.242Z,98202.84
2022-10-07T18:32:32.972Z,98202.63
2022-10-07T18:37:34.645Z,98193.38
2022-10-07T18:42:37.811Z,98186.25
2022-10-07T18:47:39.414Z,98184.28
2022-10-07T18:52:41.251Z,98172.09
2022-10-07T18:57:42.903Z,98176.16
2022-10-07T19:02:46.071Z,98174.84
2022-10-07T19:07:48.029Z,98181.00
2022-10-07T19:13:08.306Z,98173.34
2022-10-07T19:18:10.600Z,98166.72
2022-10-07T19:23:12.291Z,98169.94
2022-10-07T19:28:14.062Z,98172.75
2022-10-07T19:33:16.119Z,98164.44
2022-10-07T19:38:17.694Z,98162.84
2022-10-07T19:43:19.356Z,98168.97
2022-10-07T19:48:21.292Z,98164.38
2022-10-07T19:53:22.908Z,98161.25
2022-10-07T19:58:24.591Z,98155.84
2022-10-07T20:03:26.247Z,98152.47
2022-10-07T20:08:31.918Z,98145.63
2022-10-07T20:13:35.739Z,98149.56
2022-10-07T20:18:40.250Z,98129.91
2022-10-07T20:23:44.497Z,98132.88
2022-10-07T20:28:50.567Z,98136.06
2022-10-07T20:33:54.645Z,98131.75
2022-10-07T20:39:20.629Z,98125.38
2022-10-07T20:44:22.397Z,98122.09
2022-10-07T20:49:28.430Z,98120.06
2022-10-07T20:54:31.272Z,98112.88
2022-10-07T20:59:33.302Z,98106.03
2022-10-07T21:04:34.890Z,98105.56
2022-10-07T21:09:36.821Z,98103.91
2022-10-07T21:14:38.427Z,98104.41
2022-10-07T21:19:40.213Z,98103.53
2022-10-07T21:24:41.841Z,98108.84
2022-10-07T21:29:47.994Z,98097.78
2022-10-07T21:34:50.549Z,98098.69
2022-10-07T21:39:52.158Z,98094.75
2022-10-07T21:44:53.777Z,98080.94
2022-10-07T21:49:56.920Z,98079.94
2022-10-07T21:54:58.553Z,98070.06
2022-10-07T22:00:00.086Z,98056.28
2022-10-07T22:05:01.633Z,98047.59
2022-10-07T22:10:03.451Z,98048.94
2022-10-07T22:15:05.430Z,98028.59
2022-10-07T22:20:08.330Z,98027.78
2022-10-07T22:25:09.905Z,98023.69
2022-10-07T22:30:11.939Z,98010.69
2022-10-07T22:35:30.442Z,98002.66
2022-10-07T22:40:38.493Z,98003.44
2022-10-07T22:45:40.084Z,97997.00
2022-10-07T22:50:41.617Z,97996.31
2022-10-07T22:55:43.799Z,97992.56
2022-10-07T23:00:47.004Z,97989.00
2022-10-07T23:05:50.734Z,97996.63
2022-10-07T23:11:00.997Z,97984.84
2022-10-07T23:16:06.490Z,97975.84
2022-10-07T23:21:16.575Z,97980.84
2022-10-07T23:26:24.159Z,97972.66
2022-10-07T23:31:28.441Z,97972.72
2022-10-07T23:36:31.219Z,97969.50
2022-10-07T23:41:33.293Z,97969.19
2022-10-07T23:46:36.386Z,97956.53
2022-10-07T23:51:38.254Z,97952.84
2022-10-07T23:56:40.009Z,97955.31
